Time;durP1;ratioP1;P1;durP2;ratioP2;P2;SDS_P1;SDS_P2;PMS_P1;PMS_P2;Temp;Humidity;BMP_temperature;BMP_pressure;BME280_temperature;BME280_humidity;BME280_pressure;Samples;Min_cycle;Max_cycle;Signal;HPM_P1;HPM_P2
2022/07/12 00:01:32;;;;;;;1.13;1.13;;;14.70;99.90;;;;;;5015134;28;20175;-68
2022/07/12 00:03:57;;;;;;;0.63;0.60;;;14.70;99.90;;;;;;5015106;28;20414;-68
2022/07/12 00:06:23;;;;;;;0.57;0.57;;;14.70;99.90;;;;;;5015352;28;20629;-68
2022/07/12 00:08:48;;;;;;;0.60;0.60;;;14.70;99.90;;;;;;5013361;28;20332;-68
2022/07/12 00:11:14;;;;;;;0.40;0.40;;;14.70;99.90;;;;;;5014998;28;20254;-68
2022/07/12 00:13:40;;;;;;;0.90;0.90;;;14.60;99.90;;;;;;5014799;28;20214;-68
2022/07/12 00:16:06;;;;;;;1.83;0.60;;;14.60;99.90;;;;;;5014919;28;20183;-68
2022/07/12 00:18:31;;;;;;;0.80;0.80;;;14.50;99.90;;;;;;5014481;28;20286;-68
2022/07/12 00:20:57;;;;;;;1.30;0.70;;;14.50;99.90;;;;;;5013257;28;20489;-68
2022/07/12 00:23:23;;;;;;;0.50;0.50;;;14.50;99.90;;;;;;5014683;28;20544;-68
2022/07/12 00:25:49;;;;;;;0.93;0.93;;;14.30;99.90;;;;;;5014520;28;20437;-67
2022/07/12 00:28:15;;;;;;;0.60;0.60;;;14.20;99.90;;;;;;5014214;28;20201;-68
2022/07/12 00:30:41;;;;;;;0.40;0.40;;;14.20;99.90;;;;;;5014762;28;20630;-67
2022/07/12 00:33:06;;;;;;;1.30;1.20;;;14.10;99.90;;;;;;5014601;28;20486;-68
2022/07/12 00:35:32;;;;;;;2.83;0.87;;;14.10;99.90;;;;;;5013841;28;20244;-68
2022/07/12 00:37:57;;;;;;;0.50;0.50;;;14.10;99.90;;;;;;5014180;28;20636;-68
2022/07/12 00:40:23;;;;;;;0.70;0.57;;;14.00;99.90;;;;;;5014328;28;20257;-69
2022/07/12 00:42:49;;;;;;;0.60;0.60;;;14.10;99.90;;;;;;5014367;28;20628;-68
2022/07/12 00:45:14;;;;;;;1.27;0.40;;;14.10;99.90;;;;;;5013144;28;20551;-68
2022/07/12 00:47:44;;;;;;;0.97;0.93;;;14.10;99.90;;;;;;5014079;28;20274;-68
2022/07/12 00:50:19;;;;;;;0.87;0.87;;;14.10;99.90;;;;;;5014183;28;20520;-68
2022/07/12 00:52:47;;;;;;;0.37;0.37;;;14.00;99.90;;;;;;5014115;28;20458;-68
2022/07/12 00:55:13;;;;;;;0.97;0.73;;;13.90;99.90;;;;;;5014229;28;20413;-67
2022/07/12 00:57:44;;;;;;;0.40;0.40;;;14.00;99.90;;;;;;5013957;28;20436;-68
2022/07/12 01:00:13;;;;;;;0.50;0.50;;;14.00;99.90;;;;;;5014007;28;20751;-68
2022/07/12 01:02:39;;;;;;;0.77;0.77;;;14.00;99.90;;;;;;5014026;28;20419;-68
2022/07/12 01:05:06;;;;;;;0.77;0.70;;;14.00;99.90;;;;;;5014024;28;20412;-68
2022/07/12 01:07:33;;;;;;;1.30;0.80;;;13.90;99.90;;;;;;5013697;28;20922;-68
2022/07/12 01:09:59;;;;;;;0.57;0.57;;;14.00;99.90;;;;;;5013896;28;20411;-68
2022/07/12 01:12:25;;;;;;;0.60;0.60;;;14.00;99.90;;;;;;5014188;28;20763;-67
2022/07/12 01:14:51;;;;;;;0.40;0.40;;;14.00;99.90;;;;;;5014020;28;20503;-68
2022/07/12 01:17:24;;;;;;;0.60;0.60;;;13.90;99.90;;;;;;5013523;28;20397;-68
2022/07/12 01:19:52;;;;;;;0.50;0.50;;;13.90;99.90;;;;;;5014159;28;20405;-68
2022/07/12 01:22:18;;;;;;;1.30;1.23;;;13.80;99.90;;;;;;5013755;28;20479;-67
2022/07/12 01:24:45;;;;;;;0.40;0.40;;;13.80;99.90;;;;;;5013663;28;20426;-68
2022/07/12 01:27:12;;;;;;;1.00;1.00;;;13.90;99.90;;;;;;5013686;28;20403;-68
2022/07/12 01:29:38;;;;;;;0.60;0.50;;;13.90;99.90;;;;;;5013591;28;20415;-68
2022/07/12 01:32:27;;;;;;;1.53;1.43;;;14.00;99.90;;;;;;5014037;28;20403;-68
2022/07/12 01:35:01;;;;;;;1.13;0.93;;;13.90;99.90;;;;;;5013542;28;20416;-68
2022/07/12 01:37:33;;;;;;;0.50;0.50;;;13.80;99.90;;;;;;5013393;28;20411;-68
2022/07/12 01:39:59;;;;;;;0.40;0.40;;;13.80;99.90;;;;;;5013339;28;20450;-68
2022/07/12 01:42:27;;;;;;;0.70;0.70;;;13.80;99.90;;;;;;5013475;28;20406;-68
2022/07/12 01:44:54;;;;;;;0.60;0.60;;;13.80;99.90;;;;;;5013608;28;20447;-68
2022/07/12 01:47:21;;;;;;;0.40;0.40;;;13.70;99.90;;;;;;5014564;28;20405;-68
2022/07/12 01:49:46;;;;;;;0.67;0.67;;;13.70;99.90;;;;;;5017480;28;20442;-68
2022/07/12 01:52:13;;;;;;;1.47;0.50;;;13.60;99.90;;;;;;5017578;28;20436;-67
2022/07/12 01:54:40;;;;;;;0.60;0.60;;;13.60;99.90;;;;;;5017486;28;20624;-68
2022/07/12 01:57:06;;;;;;;0.50;0.50;;;13.60;99.90;;;;;;5017182;28;20499;-69
2022/07/12 01:59:32;;;;;;;1.43;0.50;;;13.60;99.90;;;;;;5017248;28;20926;-68
2022/07/12 02:01:58;;;;;;;0.50;0.50;;;13.40;99.90;;;;;;5017185;28;20398;-68
2022/07/12 02:04:24;;;;;;;0.93;0.93;;;13.50;99.90;;;;;;5017264;28;20895;-68
2022/07/12 02:06:50;;;;;;;0.53;0.53;;;13.50;99.90;;;;;;5017096;28;20413;-68
2022/07/12 02:09:16;;;;;;;0.50;0.50;;;13.50;99.90;;;;;;5016945;28;20789;-68
2022/07/12 02:11:43;;;;;;;0.43;0.43;;;13.50;99.90;;;;;;5017072;28;20410;-69
2022/07/12 02:14:09;;;;;;;0.40;0.40;;;13.50;99.90;;;;;;5017047;28;20459;-68
2022/07/12 02:16:35;;;;;;;0.60;0.60;;;13.50;99.90;;;;;;5017120;28;20414;-68
2022/07/12 02:19:01;;;;;;;1.23;0.70;;;13.40;99.90;;;;;;5016912;28;20490;-68
2022/07/12 02:21:27;;;;;;;0.63;0.63;;;13.40;99.90;;;;;;5016903;28;20172;-68
2022/07/12 02:23:53;;;;;;;0.60;0.60;;;13.40;99.90;;;;;;5017176;28;20412;-68
2022/07/12 02:26:19;;;;;;;0.50;0.50;;;13.30;99.90;;;;;;5016799;28;20406;-68
2022/07/12 02:28:44;;;;;;;0.73;0.53;;;13.40;99.90;;;;;;5015320;28;20702;-68
2022/07/12 02:31:10;;;;;;;0.33;0.33;;;13.40;99.90;;;;;;5016966;28;20406;-67
2022/07/12 02:33:36;;;;;;;0.60;0.47;;;13.40;99.90;;;;;;5016778;28;20661;-68
2022/07/12 02:36:02;;;;;;;0.73;0.50;;;13.30;99.90;;;;;;5016798;28;20170;-68
2022/07/12 02:38:28;;;;;;;0.70;0.70;;;13.30;99.90;;;;;;5016397;28;20529;-68
2022/07/12 02:40:54;;;;;;;0.40;0.40;;;13.40;99.90;;;;;;5016556;28;20436;-68
2022/07/12 02:43:27;;;;;;;0.40;0.40;;;13.40;99.90;;;;;;5016634;28;20222;-68
2022/07/12 02:45:56;;;;;;;0.50;0.50;;;13.40;99.90;;;;;;5016617;28;20170;-68
2022/07/12 02:48:22;;;;;;;0.50;0.50;;;13.40;99.90;;;;;;5016253;28;20448;-69
2022/07/12 02:50:48;;;;;;;3.43;1.60;;;13.40;99.90;;;;;;5016470;28;20421;-67
2022/07/12 02:53:15;;;;;;;0.37;0.37;;;13.40;99.90;;;;;;5016263;28;20943;-67
2022/07/12 02:55:40;;;;;;;0.63;0.63;;;13.40;99.90;;;;;;5016290;28;20398;-67
2022/07/12 02:58:06;;;;;;;0.60;0.60;;;13.40;99.90;;;;;;5015597;28;20437;-68
2022/07/12 03:00:32;;;;;;;0.90;0.90;;;13.40;99.90;;;;;;5016274;28;20181;-68
2022/07/12 03:02:58;;;;;;;1.63;0.83;;;13.40;99.90;;;;;;5015053;28;20425;-68
2022/07/12 03:05:24;;;;;;;2.17;1.97;;;13.40;99.90;;;;;;5016096;28;20444;-68
2022/07/12 03:07:50;;;;;;;0.40;0.40;;;13.40;99.90;;;;;;5015957;28;20471;-68
2022/07/12 03:10:16;;;;;;;0.40;0.40;;;13.30;99.90;;;;;;5016163;28;20177;-68
2022/07/12 03:12:42;;;;;;;0.50;0.50;;;13.30;99.90;;;;;;5015982;28;20656;-68
2022/07/12 03:15:07;;;;;;;0.30;0.30;;;13.30;99.90;;;;;;5016053;28;20439;-68
2022/07/12 03:17:34;;;;;;;0.60;0.50;;;13.40;99.90;;;;;;5015780;28;20252;-68
2022/07/12 03:20:00;;;;;;;0.40;0.40;;;13.50;99.90;;;;;;5015723;28;20509;-68
2022/07/12 03:22:25;;;;;;;1.47;1.47;;;13.50;99.90;;;;;;5015746;28;20434;-68
2022/07/12 03:24:51;;;;;;;0.43;0.43;;;13.50;99.90;;;;;;5015790;28;20831;-67
2022/07/12 03:27:18;;;;;;;0.57;0.57;;;13.40;99.90;;;;;;5015537;28;20458;-67
2022/07/12 03:29:43;;;;;;;1.00;1.00;;;13.40;99.90;;;;;;5015725;28;20544;-68
2022/07/12 03:32:09;;;;;;;0.50;0.50;;;13.50;99.90;;;;;;5015785;28;20412;-68
2022/07/12 03:34:35;;;;;;;0.97;0.73;;;13.50;99.90;;;;;;5015660;28;21025;-67
2022/07/12 03:37:02;;;;;;;0.63;0.60;;;13.60;99.90;;;;;;5014067;28;20417;-68
2022/07/12 03:39:28;;;;;;;0.40;0.40;;;13.60;99.90;;;;;;5015361;28;20449;-68
2022/07/12 03:41:54;;;;;;;0.73;0.67;;;13.60;99.90;;;;;;5015538;28;20458;-68
2022/07/12 03:44:20;;;;;;;1.47;1.17;;;13.60;99.90;;;;;;5014247;28;20428;-67
2022/07/12 03:46:47;;;;;;;0.83;0.63;;;13.50;99.90;;;;;;5015465;28;20180;-68
2022/07/12 03:49:13;;;;;;;0.80;0.80;;;13.60;99.90;;;;;;5015205;28;20191;-68
2022/07/12 03:51:39;;;;;;;0.40;0.40;;;13.60;99.90;;;;;;5015229;28;20460;-67
2022/07/12 03:54:07;;;;;;;0.40;0.40;;;13.60;99.90;;;;;;5015160;28;20202;-68
2022/07/12 03:59:17;;;;;;;0.63;0.63;;;13.50;99.90;;;;;;5015049;28;20419;-68
2022/07/12 04:01:43;;;;;;;0.40;0.40;;;13.50;99.90;;;;;;5015195;28;20885;-68
2022/07/12 04:04:09;;;;;;;0.40;0.40;;;13.40;99.90;;;;;;5013754;28;20181;-68
2022/07/12 04:06:34;;;;;;;1.40;0.97;;;13.40;99.90;;;;;;5014992;28;20211;-68
2022/07/12 04:09:00;;;;;;;0.30;0.30;;;13.30;99.90;;;;;;5014528;28;20234;-67
2022/07/12 04:11:26;;;;;;;0.70;0.60;;;13.40;99.90;;;;;;5014346;28;20174;-67
2022/07/12 04:13:51;;;;;;;0.40;0.40;;;13.40;99.90;;;;;;5014968;28;20200;-68
2022/07/12 04:16:17;;;;;;;1.03;0.50;;;13.40;99.90;;;;;;5014881;28;20406;-68
2022/07/12 04:18:43;;;;;;;0.87;0.60;;;13.40;99.90;;;;;;5014560;28;20195;-68
2022/07/12 04:21:08;;;;;;;0.90;0.53;;;13.50;99.90;;;;;;5014333;28;20652;-68
2022/07/12 04:23:34;;;;;;;0.87;0.70;;;13.50;99.90;;;;;;5014749;28;20636;-68
2022/07/12 04:26:00;;;;;;;0.93;0.93;;;13.50;99.90;;;;;;5014642;28;20281;-68
2022/07/12 04:28:25;;;;;;;0.40;0.40;;;13.40;99.90;;;;;;5014333;28;20201;-68
2022/07/12 04:30:51;;;;;;;1.63;0.57;;;13.50;99.90;;;;;;5014478;28;20174;-67
2022/07/12 04:33:16;;;;;;;1.23;1.10;;;13.40;99.90;;;;;;5014434;28;20213;-68
2022/07/12 04:35:42;;;;;;;0.43;0.43;;;13.40;99.90;;;;;;5014431;28;20187;-68
2022/07/12 04:38:08;;;;;;;0.60;0.60;;;13.50;99.90;;;;;;5014269;28;20560;-68
2022/07/12 04:40:33;;;;;;;0.53;0.53;;;13.70;99.90;;;;;;5013076;28;20658;-68
2022/07/12 04:42:59;;;;;;;0.80;0.67;;;14.30;99.90;;;;;;5012935;28;20180;-70
2022/07/12 04:45:25;;;;;;;1.43;1.43;;;15.20;99.90;;;;;;5013959;28;20176;-70
2022/07/12 04:47:51;;;;;;;1.53;0.97;;;16.00;99.30;;;;;;5012709;28;20286;-70
2022/07/12 04:50:16;;;;;;;1.67;1.30;;;16.60;97.40;;;;;;5012187;28;20211;-70
2022/07/12 04:52:42;;;;;;;0.50;0.50;;;16.90;96.70;;;;;;5014060;28;20242;-69
2022/07/12 04:55:08;;;;;;;0.57;0.57;;;17.00;96.00;;;;;;5014221;28;20190;-70
2022/07/12 04:57:34;;;;;;;1.13;1.13;;;17.00;95.60;;;;;;5013681;28;20206;-71
2022/07/12 04:59:59;;;;;;;0.70;0.70;;;17.10;95.40;;;;;;5013997;28;20820;-71
2022/07/12 05:02:25;;;;;;;1.40;1.30;;;17.20;95.60;;;;;;5012951;28;20262;-70
2022/07/12 05:04:51;;;;;;;0.47;0.47;;;17.80;95.20;;;;;;5014210;28;20195;-71
2022/07/12 05:07:17;;;;;;;0.50;0.50;;;18.60;93.80;;;;;;5012244;28;20902;-70
2022/07/12 05:09:42;;;;;;;0.40;0.40;;;19.20;92.40;;;;;;5013449;28;20577;-70
2022/07/12 05:12:08;;;;;;;1.47;1.00;;;19.80;90.70;;;;;;5012625;28;20180;-70
2022/07/12 05:14:34;;;;;;;0.70;0.70;;;20.40;90.10;;;;;;5013701;28;20550;-70
2022/07/12 05:16:59;;;;;;;0.63;0.63;;;21.10;88.80;;;;;;5013521;28;20172;-70
2022/07/12 05:19:25;;;;;;;0.90;0.90;;;21.60;86.10;;;;;;5013904;28;20192;-70
2022/07/12 05:21:51;;;;;;;0.50;0.50;;;21.60;82.90;;;;;;5012341;28;20263;-70
2022/07/12 05:24:16;;;;;;;0.50;0.50;;;21.20;84.60;;;;;;5013440;28;20184;-70
2022/07/12 05:26:42;;;;;;;0.50;0.50;;;21.00;84.90;;;;;;5012560;28;20217;-70
2022/07/12 05:29:08;;;;;;;2.10;1.17;;;20.80;85.80;;;;;;5013589;28;20199;-69
2022/07/12 05:31:33;;;;;;;0.40;0.30;;;20.60;86.10;;;;;;5011517;28;20210;-70
2022/07/12 05:34:00;;;;;;;0.40;0.40;;;20.50;87.40;;;;;;5012922;28;20204;-70
2022/07/12 05:36:25;;;;;;;1.23;0.50;;;20.00;84.00;;;;;;5012569;28;20182;-70
2022/07/12 05:38:51;;;;;;;0.40;0.40;;;19.80;87.70;;;;;;5011745;28;20432;-70
2022/07/12 05:41:17;;;;;;;0.50;0.50;;;19.50;89.20;;;;;;5014156;28;20555;-70
2022/07/12 05:43:43;;;;;;;0.30;0.30;;;19.40;90.00;;;;;;5012405;28;20702;-71
2022/07/12 05:46:09;;;;;;;1.43;0.43;;;19.30;89.70;;;;;;5013224;28;20549;-70
2022/07/12 05:48:35;;;;;;;0.90;0.50;;;19.30;90.80;;;;;;5011989;28;20444;-71
2022/07/12 05:53:53;;;;;;;0.80;0.80;;;19.40;89.90;;;;;;4990253;28;20454;-71
2022/07/12 05:56:19;;;;;;;0.43;0.43;;;20.00;90.60;;;;;;5013628;28;20836;-71
2022/07/12 05:58:44;;;;;;;0.80;0.80;;;20.80;87.90;;;;;;5011853;28;20197;-70
2022/07/12 06:01:10;;;;;;;0.40;0.40;;;21.10;86.80;;;;;;5013729;28;20172;-71
2022/07/12 06:03:37;;;;;;;0.50;0.47;;;21.00;84.60;;;;;;5013992;28;20184;-70
2022/07/12 06:06:03;;;;;;;0.30;0.30;;;21.00;86.80;;;;;;5011953;28;20429;-71
2022/07/12 06:08:28;;;;;;;0.43;0.43;;;20.80;85.80;;;;;;5012879;28;20437;-70
2022/07/12 06:10:54;;;;;;;0.30;0.30;;;20.60;84.40;;;;;;5013073;28;20172;-70
2022/07/12 06:13:20;;;;;;;0.60;0.57;;;20.60;85.00;;;;;;5012782;28;20206;-70
2022/07/12 06:15:45;;;;;;;0.53;0.53;;;20.60;85.20;;;;;;5011922;28;20170;-71
2022/07/12 06:18:11;;;;;;;0.40;0.40;;;20.80;84.50;;;;;;5011805;28;20219;-70
2022/07/12 06:20:36;;;;;;;1.07;0.97;;;21.40;83.90;;;;;;5012708;28;20238;-72
2022/07/12 06:23:02;;;;;;;0.40;0.40;;;22.60;84.40;;;;;;5012935;28;20636;-70
2022/07/12 06:25:30;;;;;;;0.50;0.50;;;24.50;74.80;;;;;;5012081;28;20200;-72
2022/07/12 06:28:00;;;;;;;0.40;0.40;;;26.00;69.30;;;;;;5011199;28;20274;-71
2022/07/12 06:30:26;;;;;;;0.40;0.40;;;27.70;63.40;;;;;;5013308;28;20871;-73
2022/07/12 06:32:52;;;;;;;0.67;0.60;;;29.20;61.20;;;;;;5013425;28;20497;-71
2022/07/12 06:35:17;;;;;;;0.43;0.43;;;30.20;55.00;;;;;;5015529;28;20195;-71
2022/07/12 06:37:43;;;;;;;0.40;0.40;;;29.80;51.60;;;;;;5016761;28;20236;-71
2022/07/12 06:40:10;;;;;;;0.30;0.30;;;27.70;51.60;;;;;;5016657;28;20183;-72
2022/07/12 06:42:35;;;;;;;0.50;0.50;;;26.20;55.30;;;;;;5015397;28;20612;-72
2022/07/12 06:45:01;;;;;;;0.83;0.80;;;26.10;55.90;;;;;;5016554;28;20421;-72
2022/07/12 06:47:27;;;;;;;0.40;0.40;;;25.20;57.10;;;;;;5016472;28;20177;-71
2022/07/12 06:49:53;;;;;;;0.30;0.30;;;24.10;59.00;;;;;;5016631;28;20910;-71
2022/07/12 06:52:19;;;;;;;0.40;0.40;;;23.70;59.20;;;;;;5014366;28;20237;-71
2022/07/12 06:54:45;;;;;;;0.60;0.60;;;24.10;60.40;;;;;;5014755;28;20210;-70
2022/07/12 06:57:11;;;;;;;0.70;0.70;;;24.30;62.20;;;;;;5015987;28;20409;-70
2022/07/12 06:59:37;;;;;;;0.63;0.63;;;24.80;61.40;;;;;;5014484;28;20430;-71
2022/07/12 07:02:02;;;;;;;0.60;0.60;;;25.80;57.80;;;;;;5014969;28;20668;-71
2022/07/12 07:04:28;;;;;;;0.93;0.70;;;26.60;56.90;;;;;;5014476;28;20271;-72
2022/07/12 07:06:54;;;;;;;0.50;0.50;;;27.40;54.30;;;;;;5014278;28;20198;-70
2022/07/12 07:09:20;;;;;;;0.40;0.40;;;28.70;52.40;;;;;;5015248;28;20249;-71
2022/07/12 07:11:45;;;;;;;0.40;0.40;;;29.10;50.60;;;;;;5015275;28;20613;-72
2022/07/12 07:14:11;;;;;;;1.03;0.60;;;27.70;52.00;;;;;;5015202;28;20702;-71
2022/07/12 07:16:37;;;;;;;0.40;0.40;;;27.10;54.00;;;;;;5015696;28;20888;-71
2022/07/12 07:19:03;;;;;;;0.40;0.40;;;27.30;53.60;;;;;;5015823;28;20187;-71
2022/07/12 07:21:29;;;;;;;0.80;0.70;;;27.50;53.40;;;;;;5016456;28;20175;-71
2022/07/12 07:23:55;;;;;;;0.60;0.60;;;26.80;53.20;;;;;;5015707;28;20425;-72
2022/07/12 07:26:22;;;;;;;0.50;0.50;;;26.70;54.30;;;;;;5016090;28;20204;-72
2022/07/12 07:31:36;;;;;;;0.67;0.67;;;28.50;52.10;;;;;;5016239;28;20584;-71
2022/07/12 07:34:03;;;;;;;0.50;0.50;;;29.40;51.40;;;;;;5015784;28;20461;-72
2022/07/12 07:36:28;;;;;;;0.53;0.53;;;29.90;49.40;;;;;;5015581;28;20438;-72
2022/07/12 07:38:54;;;;;;;0.37;0.37;;;30.50;49.50;;;;;;5015474;28;20803;-71
2022/07/12 07:41:20;;;;;;;0.50;0.50;;;30.50;48.40;;;;;;5015598;28;20171;-72
2022/07/12 07:43:45;;;;;;;0.60;0.60;;;31.40;45.30;;;;;;5014192;28;20176;-72
2022/07/12 07:46:11;;;;;;;0.50;0.40;;;32.80;45.40;;;;;;5015981;28;20182;-72
2022/07/12 07:48:37;;;;;;;0.40;0.40;;;34.10;43.50;;;;;;5015220;28;20724;-72
2022/07/12 07:51:02;;;;;;;0.73;0.50;;;34.70;39.80;;;;;;5015519;28;20659;-71
2022/07/12 07:53:28;;;;;;;0.40;0.40;;;35.40;39.80;;;;;;5015568;28;20212;-71
2022/07/12 07:55:54;;;;;;;0.50;0.50;;;35.70;38.40;;;;;;5015471;28;20180;-70
2022/07/12 07:58:22;;;;;;;0.50;0.50;;;36.30;37.80;;;;;;5014869;28;20246;-71
2022/07/12 08:00:51;;;;;;;0.50;0.50;;;37.00;37.00;;;;;;5015701;28;20171;-70
2022/07/12 08:03:18;;;;;;;0.60;0.50;;;37.40;34.50;;;;;;5015154;28;20456;-71
2022/07/12 08:05:44;;;;;;;0.50;0.47;;;38.20;35.00;;;;;;5015088;28;20759;-70
2022/07/12 08:08:09;;;;;;;0.50;0.50;;;39.10;33.50;;;;;;5014729;28;20422;-70
2022/07/12 08:10:35;;;;;;;0.50;0.50;;;37.50;32.00;;;;;;5015254;28;20176;-70
2022/07/12 08:13:01;;;;;;;0.40;0.40;;;36.00;34.90;;;;;;5015284;28;20213;-70
2022/07/12 08:15:27;;;;;;;0.60;0.50;;;36.10;34.20;;;;;;5013267;28;20176;-69
2022/07/12 08:17:52;;;;;;;0.63;0.63;;;36.40;34.70;;;;;;5014030;28;20221;-69
2022/07/12 08:20:18;;;;;;;0.50;0.50;;;36.80;33.20;;;;;;5013680;28;20715;-69
2022/07/12 08:22:45;;;;;;;0.60;0.53;;;37.50;33.90;;;;;;5013172;28;20520;-69
2022/07/12 08:25:11;;;;;;;0.53;0.40;;;38.00;32.00;;;;;;5014611;28;20191;-69
2022/07/12 08:27:37;;;;;;;0.43;0.43;;;38.10;31.10;;;;;;5014398;28;20421;-69
2022/07/12 08:30:03;;;;;;;0.67;0.50;;;38.60;31.10;;;;;;5014424;28;20410;-69
2022/07/12 08:32:29;;;;;;;0.50;0.50;;;38.30;30.20;;;;;;5014538;28;20250;-70
2022/07/12 08:34:55;;;;;;;0.43;0.43;;;38.50;30.30;;;;;;5014360;28;21038;-69
2022/07/12 08:37:21;;;;;;;0.60;0.50;;;39.10;32.20;;;;;;5014205;28;20254;-70
2022/07/12 08:39:47;;;;;;;0.50;0.40;;;39.90;31.60;;;;;;5014394;28;20446;-69
2022/07/12 08:42:15;;;;;;;0.50;0.50;;;40.50;30.30;;;;;;5013158;28;20176;-69
2022/07/12 08:44:41;;;;;;;0.40;0.40;;;38.40;30.40;;;;;;5014510;28;20561;-69
2022/07/12 08:47:10;;;;;;;0.43;0.43;;;38.10;31.50;;;;;;5014238;28;20490;-69
2022/07/12 08:49:37;;;;;;;0.70;0.53;;;37.80;31.60;;;;;;5014188;28;20621;-69
2022/07/12 08:52:26;;;;;;;0.40;0.40;;;37.20;32.30;;;;;;5014557;28;20476;-69
2022/07/12 08:54:52;;;;;;;0.70;0.40;;;37.80;31.40;;;;;;5014325;28;20458;-69
2022/07/12 08:57:31;;;;;;;0.67;0.60;;;37.50;30.80;;;;;;5013554;28;20411;-69
2022/07/12 09:00:01;;;;;;;1.77;0.50;;;36.90;33.00;;;;;;5011279;28;20198;-69
2022/07/12 09:02:27;;;;;;;0.50;0.40;;;36.80;31.80;;;;;;5013335;28;20414;-71
2022/07/12 09:05:25;;;;;;;0.73;0.73;;;37.40;31.90;;;;;;5012815;28;20472;-70
2022/07/12 09:08:00;;;;;;;0.60;0.53;;;36.90;31.50;;;;;;5001187;28;21002;-70
2022/07/12 09:10:26;;;;;;;0.63;0.63;;;37.30;33.50;;;;;;5014097;28;20735;-71
2022/07/12 09:12:51;;;;;;;0.70;0.50;;;37.00;32.30;;;;;;5014067;28;20417;-70
2022/07/12 09:15:19;;;;;;;0.83;0.80;;;37.10;31.50;;;;;;5014265;28;20578;-70
2022/07/12 09:17:55;;;;;;;1.13;0.57;;;37.50;31.80;;;;;;5013927;28;20183;-69
2022/07/12 09:20:20;;;;;;;0.60;0.60;;;37.70;31.40;;;;;;5014487;28;20406;-71
2022/07/12 09:23:06;;;;;;;0.40;0.40;;;38.00;30.50;;;;;;5013853;28;20414;-71
2022/07/12 09:25:33;;;;;;;0.70;0.70;;;38.60;31.40;;;;;;5014028;28;20187;-71
2022/07/12 09:28:00;;;;;;;0.57;0.57;;;39.20;30.90;;;;;;5013609;28;20562;-70
2022/07/12 09:30:27;;;;;;;0.40;0.40;;;38.80;29.10;;;;;;5014041;28;20472;-70
2022/07/12 09:36:12;;;;;;;0.40;0.40;;;38.10;30.70;;;;;;5014316;28;20421;-69
2022/07/12 09:39:00;;;;;;;0.50;0.50;;;38.00;29.50;;;;;;5013519;28;20430;-69
2022/07/12 09:41:26;;;;;;;0.40;0.40;;;38.30;30.00;;;;;;5013925;28;20411;-69
2022/07/12 09:43:52;;;;;;;0.53;0.53;;;38.10;29.00;;;;;;5013940;28;20855;-70
2022/07/12 09:46:18;;;;;;;0.40;0.40;;;37.00;29.30;;;;;;5013893;28;20414;-69
2022/07/12 09:48:46;;;;;;;0.47;0.47;;;35.80;32.80;;;;;;5013793;28;20438;-69
2022/07/12 09:51:15;;;;;;;0.40;0.40;;;35.90;33.10;;;;;;5014082;28;20407;-69
2022/07/12 09:53:46;;;;;;;0.50;0.50;;;36.50;32.90;;;;;;5014037;28;20458;-69
2022/07/12 09:56:14;;;;;;;0.70;0.70;;;36.70;29.90;;;;;;5013612;28;20916;-69
2022/07/12 09:58:51;;;;;;;0.40;0.40;;;36.40;28.90;;;;;;5011233;28;20431;-69
2022/07/12 10:01:17;;;;;;;0.60;0.60;;;36.30;32.30;;;;;;5012833;28;20402;-69
2022/07/12 10:03:43;;;;;;;0.57;0.57;;;36.00;32.90;;;;;;5013555;28;20437;-70
2022/07/12 10:06:12;;;;;;;0.40;0.40;;;36.20;31.40;;;;;;5013536;28;20406;-69
2022/07/12 10:08:38;;;;;;;0.40;0.40;;;36.20;31.80;;;;;;5014745;28;20564;-69
2022/07/12 10:11:05;;;;;;;0.50;0.50;;;35.40;30.30;;;;;;5017201;28;20493;-69
2022/07/12 10:13:31;;;;;;;0.50;0.50;;;35.30;30.50;;;;;;5017077;28;20200;-69
2022/07/12 10:16:02;;;;;;;0.60;0.60;;;35.50;31.40;;;;;;5017150;28;20407;-69
2022/07/12 10:18:40;;;;;;;0.50;0.50;;;34.80;31.00;;;;;;5016845;28;20504;-69
2022/07/12 10:21:19;;;;;;;0.50;0.50;;;34.80;32.70;;;;;;5012791;28;20598;-71
2022/07/12 10:23:45;;;;;;;0.50;0.50;;;34.30;30.10;;;;;;5017002;28;20770;-72
2022/07/12 10:26:14;;;;;;;0.70;0.70;;;34.00;33.20;;;;;;5016876;28;20445;-71
2022/07/12 10:29:05;;;;;;;0.47;0.47;;;34.20;34.20;;;;;;5016534;28;20459;-71
2022/07/12 10:31:38;;;;;;;0.53;0.40;;;34.50;31.90;;;;;;5016759;28;20572;-71
2022/07/12 10:34:11;;;;;;;0.30;0.30;;;34.60;31.80;;;;;;5015258;28;20462;-71
2022/07/12 10:36:54;;;;;;;0.60;0.53;;;34.60;32.50;;;;;;5014810;28;20895;-71
2022/07/12 10:39:21;;;;;;;0.50;0.50;;;34.50;32.30;;;;;;5015148;28;20454;-72
2022/07/12 10:42:05;;;;;;;0.43;0.37;;;34.40;30.20;;;;;;5016212;28;20537;-71
2022/07/12 10:44:35;;;;;;;0.40;0.40;;;33.70;29.50;;;;;;5016603;28;20485;-71
2022/07/12 10:47:02;;;;;;;0.40;0.40;;;33.20;33.90;;;;;;5016269;28;20795;-71
2022/07/12 10:49:31;;;;;;;0.50;0.50;;;33.30;32.20;;;;;;5015972;28;20431;-72
2022/07/12 10:52:11;;;;;;;0.40;0.40;;;33.50;33.60;;;;;;5016495;28;20493;-72
2022/07/12 10:54:42;;;;;;;0.50;0.40;;;33.10;29.80;;;;;;5016427;28;20866;-71
2022/07/12 10:57:08;;;;;;;0.30;0.30;;;33.20;33.00;;;;;;5016320;28;20414;-71
2022/07/12 10:59:36;;;;;;;0.40;0.40;;;32.80;29.70;;;;;;5016201;28;20426;-72
2022/07/12 11:02:03;;;;;;;0.40;0.40;;;32.20;31.10;;;;;;5016328;28;20402;-71
2022/07/12 11:04:29;;;;;;;0.80;0.50;;;31.50;32.20;;;;;;5016258;28;20406;-71
2022/07/12 11:06:56;;;;;;;0.30;0.30;;;30.80;30.10;;;;;;5016074;28;20452;-72
2022/07/12 11:09:24;;;;;;;0.40;0.40;;;29.90;32.60;;;;;;5015964;28;20194;-71
2022/07/12 11:11:52;;;;;;;0.93;0.40;;;29.70;31.00;;;;;;5014783;28;20462;-71
2022/07/12 11:14:24;;;;;;;0.40;0.40;;;29.40;31.20;;;;;;5015557;28;20624;-71
2022/07/12 11:16:54;;;;;;;0.50;0.50;;;29.20;32.00;;;;;;5012798;28;20413;-71
2022/07/12 11:19:27;;;;;;;0.30;0.30;;;29.20;32.40;;;;;;5014293;28;20577;-71
2022/07/12 11:21:57;;;;;;;0.30;0.30;;;29.30;35.40;;;;;;5016032;28;20413;-71
2022/07/12 11:24:31;;;;;;;0.80;0.60;;;29.10;33.00;;;;;;5015687;28;20521;-71
2022/07/12 11:26:59;;;;;;;0.40;0.40;;;28.60;31.50;;;;;;5015721;28;20413;-71
2022/07/12 11:29:25;;;;;;;0.60;0.53;;;28.50;31.90;;;;;;5014349;28;20438;-71
2022/07/12 11:32:00;;;;;;;0.40;0.40;;;28.80;34.20;;;;;;5015856;28;20787;-72
2022/07/12 11:34:26;;;;;;;0.30;0.30;;;28.90;31.10;;;;;;5015810;28;20954;-71
2022/07/12 11:37:01;;;;;;;0.40;0.40;;;29.10;36.50;;;;;;5015596;28;20410;-71
2022/07/12 11:39:35;;;;;;;0.40;0.40;;;28.60;32.10;;;;;;5015473;28;20433;-71
2022/07/12 11:42:02;;;;;;;0.50;0.50;;;28.00;35.80;;;;;;5015612;28;20409;-71
2022/07/12 11:44:50;;;;;;;0.40;0.40;;;28.00;32.90;;;;;;5015370;28;20445;-71
2022/07/12 11:47:22;;;;;;;0.30;0.30;;;28.00;34.60;;;;;;5014018;28;20414;-71
2022/07/12 11:49:54;;;;;;;0.30;0.30;;;28.00;35.10;;;;;;5015292;28;20415;-71
2022/07/12 11:52:22;;;;;;;0.40;0.40;;;28.00;33.70;;;;;;5014913;28;20780;-71
2022/07/12 11:54:50;;;;;;;0.40;0.40;;;28.30;36.00;;;;;;5013232;28;20718;-71
2022/07/12 11:57:20;;;;;;;0.60;0.47;;;28.30;35.10;;;;;;5014987;28;20465;-71
2022/07/12 11:59:45;;;;;;;0.40;0.40;;;28.30;37.10;;;;;;5012722;28;20922;-71
2022/07/12 12:02:13;;;;;;;0.50;0.50;;;28.30;37.50;;;;;;5013067;28;20411;-71
2022/07/12 12:04:49;;;;;;;0.40;0.40;;;28.40;38.60;;;;;;5013252;28;20664;-72
2022/07/12 12:07:16;;;;;;;0.60;0.60;;;28.30;32.20;;;;;;5013595;28;20468;-72
2022/07/12 12:10:00;;;;;;;0.40;0.40;;;28.10;33.70;;;;;;5014886;28;20439;-71
2022/07/12 12:12:41;;;;;;;0.40;0.40;;;28.10;34.50;;;;;;5014671;28;20469;-71
2022/07/12 12:15:09;;;;;;;0.67;0.50;;;28.10;36.50;;;;;;5014874;28;20461;-71
2022/07/12 12:17:36;;;;;;;0.50;0.50;;;27.90;33.60;;;;;;5014494;28;20385;-71
2022/07/12 12:20:29;;;;;;;0.40;0.40;;;27.90;35.10;;;;;;5014962;28;20501;-71
2022/07/12 12:23:03;;;;;;;0.40;0.40;;;27.70;34.70;;;;;;5012403;28;20423;-71
2022/07/12 12:25:30;;;;;;;0.37;0.37;;;27.70;35.40;;;;;;5014536;28;20524;-71
2022/07/12 12:28:00;;;;;;;0.50;0.50;;;27.80;34.70;;;;;;5014496;28;20426;-71
2022/07/12 12:30:27;;;;;;;0.40;0.40;;;27.80;35.40;;;;;;5014127;28;20407;-71
2022/07/12 12:32:56;;;;;;;0.30;0.30;;;26.90;33.80;;;;;;5014352;28;20411;-71
2022/07/12 12:35:30;;;;;;;0.30;0.30;;;26.90;33.30;;;;;;5013374;28;20836;-71
2022/07/12 12:37:58;;;;;;;0.40;0.40;;;26.90;35.00;;;;;;5014319;28;20429;-71
2022/07/12 12:40:25;;;;;;;0.50;0.50;;;27.00;37.20;;;;;;5014393;28;20418;-71
2022/07/12 12:42:52;;;;;;;0.47;0.47;;;27.10;37.90;;;;;;5014362;28;20493;-71
2022/07/12 12:45:24;;;;;;;0.40;0.40;;;27.30;37.70;;;;;;5014394;28;20403;-72
2022/07/12 12:47:59;;;;;;;0.50;0.40;;;27.20;35.50;;;;;;5014081;28;20461;-71
2022/07/12 12:50:44;;;;;;;0.43;0.43;;;27.30;36.40;;;;;;5013751;28;20415;-72
2022/07/12 12:53:12;;;;;;;0.30;0.30;;;27.30;34.90;;;;;;5013962;28;20411;-72
2022/07/12 12:55:38;;;;;;;0.40;0.40;;;27.20;33.50;;;;;;5014265;28;20398;-71
2022/07/12 12:58:04;;;;;;;0.30;0.30;;;27.20;33.70;;;;;;5014014;28;20429;-71
2022/07/12 13:00:30;;;;;;;0.40;0.40;;;27.10;35.40;;;;;;5012279;28;20762;-71
2022/07/12 13:02:59;;;;;;;0.50;0.50;;;27.10;35.40;;;;;;5013046;28;20406;-71